createdAt,value
2018-09-11T00:00:14.220Z,0.00
2018-09-11T00:01:14.188Z,0.00
2018-09-11T00:02:14.187Z,0.00
2018-09-11T00:03:14.210Z,0.00
2018-09-11T00:04:14.200Z,0.00
2018-09-11T00:05:14.235Z,0.00
2018-09-11T00:06:14.192Z,0.00
2018-09-11T00:07:14.197Z,0.00
2018-09-11T00:08:14.195Z,0.00
2018-09-11T00:09:14.197Z,0.00
2018-09-11T00:10:14.209Z,0.00
2018-09-11T00:11:14.201Z,0.00
2018-09-11T00:12:14.213Z,0.00
2018-09-11T00:13:14.210Z,0.00
2018-09-11T00:14:14.209Z,0.00
2018-09-11T00:15:14.236Z,0.00
2018-09-11T00:16:14.209Z,0.00
2018-09-11T00:17:14.216Z,0.00
2018-09-11T00:18:14.208Z,0.00
2018-09-11T00:19:14.214Z,0.00
2018-09-11T00:20:14.229Z,0.00
2018-09-11T00:21:14.209Z,0.00
2018-09-11T00:22:14.232Z,0.00
2018-09-11T00:23:14.217Z,0.00
2018-09-11T00:24:14.215Z,0.00
2018-09-11T00:25:14.216Z,0.00
2018-09-11T00:26:14.224Z,0.00
2018-09-11T00:27:14.246Z,0.00
2018-09-11T00:28:14.224Z,0.00
2018-09-11T00:29:14.224Z,0.00
2018-09-11T00:30:14.227Z,0.00
2018-09-11T00:31:14.227Z,0.00
2018-09-11T00:32:14.223Z,0.00
2018-09-11T00:33:14.238Z,0.00
2018-09-11T00:34:14.232Z,0.00
2018-09-11T00:35:14.226Z,0.00
2018-09-11T00:36:14.230Z,0.00
2018-09-11T00:37:14.232Z,0.00
2018-09-11T00:38:14.234Z,0.00
2018-09-11T00:39:14.237Z,0.00
2018-09-11T00:40:14.237Z,0.00
2018-09-11T00:41:14.257Z,0.00
2018-09-11T00:42:14.245Z,0.00
2018-09-11T00:43:14.265Z,0.00
2018-09-11T00:44:14.243Z,0.00
2018-09-11T00:45:14.262Z,0.00
2018-09-11T00:46:14.246Z,0.00
2018-09-11T00:47:14.246Z,0.00
2018-09-11T00:48:14.240Z,0.00
2018-09-11T00:49:14.267Z,0.00
2018-09-11T00:50:14.247Z,0.00
2018-09-11T00:51:14.245Z,0.00
2018-09-11T00:52:14.246Z,0.00
2018-09-11T00:53:14.246Z,0.00
2018-09-11T00:54:14.247Z,0.00
2018-09-11T00:55:14.248Z,0.00
2018-09-11T00:56:14.249Z,0.00
2018-09-11T00:57:14.246Z,0.00
2018-09-11T00:58:14.252Z,0.00
2018-09-11T00:59:14.255Z,0.00
2018-09-11T01:00:14.272Z,0.00
2018-09-11T01:01:14.257Z,0.00
2018-09-11T01:02:14.255Z,0.00
2018-09-11T01:03:14.280Z,0.00
2018-09-11T01:04:14.302Z,0.00
2018-09-11T01:05:14.259Z,0.00
2018-09-11T01:06:14.263Z,0.00
2018-09-11T01:07:14.286Z,0.00
2018-09-11T01:08:14.253Z,0.00
2018-09-11T01:09:14.259Z,0.00
2018-09-11T01:10:14.340Z,0.00
2018-09-11T01:11:14.265Z,0.00
2018-09-11T01:12:14.289Z,0.00
2018-09-11T01:13:14.265Z,0.00
2018-09-11T01:14:14.258Z,0.00
2018-09-11T01:15:14.267Z,0.00
2018-09-11T01:16:14.277Z,0.00
2018-09-11T01:17:14.273Z,0.00
2018-09-11T01:18:14.263Z,0.00
2018-09-11T01:19:14.288Z,0.00
2018-09-11T01:20:14.292Z,0.00
2018-09-11T01:21:14.301Z,0.00
2018-09-11T01:22:14.345Z,0.00
2018-09-11T01:23:14.295Z,0.00
2018-09-11T01:24:14.314Z,0.00
2018-09-11T01:25:14.268Z,0.00
2018-09-11T01:26:14.272Z,0.00
2018-09-11T01:27:14.298Z,0.00
2018-09-11T01:28:14.270Z,0.00
2018-09-11T01:29:14.289Z,0.00
2018-09-11T01:30:14.273Z,0.00
2018-09-11T01:31:14.306Z,0.00
2018-09-11T01:32:14.284Z,0.00
2018-09-11T01:33:14.342Z,0.00
2018-09-11T01:34:14.284Z,0.00
2018-09-11T01:35:14.320Z,0.00
2018-09-11T01:36:14.319Z,0.00
2018-09-11T01:37:14.301Z,0.00
2018-09-11T01:38:16.220Z,0.00
2018-09-11T01:39:14.278Z,0.00
2018-09-11T01:40:16.254Z,0.00
2018-09-11T01:41:14.308Z,0.00
2018-09-11T01:42:14.281Z,0.00
2018-09-11T01:43:15.380Z,0.00
2018-09-11T01:44:14.286Z,0.00
2018-09-11T01:45:14.302Z,0.00
2018-09-11T01:46:14.280Z,0.00
2018-09-11T01:47:14.321Z,0.00
2018-09-11T01:48:14.313Z,0.00
2018-09-11T01:49:14.285Z,0.00
2018-09-11T01:50:14.313Z,0.00
2018-09-11T01:51:16.203Z,0.00
2018-09-11T01:52:14.291Z,0.00
2018-09-11T01:53:16.218Z,0.00
2018-09-11T01:54:16.199Z,0.00
2018-09-11T01:55:14.285Z,0.00
2018-09-11T01:56:14.292Z,0.00
2018-09-11T01:57:14.296Z,0.00
2018-09-11T01:58:14.299Z,0.00
2018-09-11T01:59:14.284Z,0.00
2018-09-11T02:00:14.378Z,0.00
2018-09-11T02:01:14.290Z,0.00
2018-09-11T02:02:14.288Z,0.00
2018-09-11T02:03:14.299Z,0.00
2018-09-11T02:04:14.287Z,0.00
2018-09-11T02:05:14.293Z,0.00
2018-09-11T02:06:14.296Z,0.00
2018-09-11T02:07:14.327Z,0.00
2018-09-11T02:08:14.327Z,0.00
2018-09-11T02:09:14.306Z,0.00
2018-09-11T02:10:14.290Z,0.00
2018-09-11T02:11:14.357Z,0.00
2018-09-11T02:12:14.297Z,0.00
2018-09-11T02:13:16.266Z,0.00
2018-09-11T02:14:14.309Z,0.00
2018-09-11T02:15:14.305Z,0.00
2018-09-11T02:16:14.304Z,0.00
2018-09-11T02:17:14.292Z,0.00
2018-09-11T02:18:14.313Z,0.00
2018-09-11T02:19:14.296Z,0.00
2018-09-11T02:20:14.324Z,0.00
2018-09-11T02:21:14.316Z,0.00
2018-09-11T02:22:14.333Z,0.00
2018-09-11T02:23:14.314Z,0.00
2018-09-11T02:24:14.297Z,0.00
2018-09-11T02:25:14.328Z,0.00
2018-09-11T02:26:14.292Z,0.00
2018-09-11T02:27:14.296Z,0.00
2018-09-11T02:28:14.366Z,0.00
2018-09-11T02:29:14.314Z,0.00
2018-09-11T02:30:14.299Z,0.00
2018-09-11T02:31:14.336Z,0.00
2018-09-11T02:32:14.296Z,0.00
2018-09-11T02:33:14.294Z,0.00
2018-09-11T02:34:14.299Z,0.00
2018-09-11T02:35:14.301Z,0.00
2018-09-11T02:36:14.342Z,0.00
2018-09-11T02:37:14.299Z,0.00
2018-09-11T02:38:14.300Z,0.00
2018-09-11T02:39:14.303Z,0.00
2018-09-11T02:40:14.306Z,0.00
2018-09-11T02:41:14.340Z,0.00
2018-09-11T02:42:14.302Z,0.00
2018-09-11T02:43:14.332Z,0.00
2018-09-11T02:44:14.335Z,0.00
2018-09-11T02:45:14.305Z,0.00
2018-09-11T02:46:14.304Z,0.00
2018-09-11T02:47:14.378Z,0.00
2018-09-11T02:48:14.304Z,0.00
2018-09-11T02:49:14.307Z,0.00
2018-09-11T02:50:14.304Z,0.00
2018-09-11T02:51:14.358Z,0.00
2018-09-11T02:52:14.315Z,0.00
2018-09-11T02:53:14.327Z,0.00
2018-09-11T02:54:14.302Z,0.00
2018-09-11T02:55:14.340Z,0.00
2018-09-11T02:56:14.372Z,0.00
2018-09-11T02:57:14.297Z,0.00
2018-09-11T02:58:14.358Z,0.00
2018-09-11T02:59:14.298Z,0.00
2018-09-11T03:00:14.339Z,0.00
2018-09-11T03:01:14.335Z,0.00
2018-09-11T03:02:14.307Z,0.00
2018-09-11T03:03:14.305Z,0.00
2018-09-11T03:04:14.316Z,0.00
2018-09-11T03:05:14.320Z,0.00
2018-09-11T03:06:14.342Z,0.00
2018-09-11T03:07:14.389Z,0.00
2018-09-11T03:08:14.315Z,0.00
2018-09-11T03:09:14.325Z,0.00
2018-09-11T03:10:14.348Z,0.00
2018-09-11T03:11:14.327Z,0.00
2018-09-11T03:12:14.368Z,0.00
2018-09-11T03:13:14.388Z,0.00
2018-09-11T03:14:14.345Z,0.00
2018-09-11T03:15:14.303Z,0.00
2018-09-11T03:16:14.366Z,0.00
2018-09-11T03:17:14.309Z,0.00
2018-09-11T03:18:14.304Z,0.00
2018-09-11T03:19:14.304Z,0.00
2018-09-11T03:20:14.357Z,0.00
2018-09-11T03:21:14.305Z,0.00
2018-09-11T03:22:14.351Z,0.00
2018-09-11T03:23:14.349Z,0.00
2018-09-11T03:24:14.333Z,0.00
2018-09-11T03:25:14.312Z,0.00
2018-09-11T03:26:14.329Z,0.00
2018-09-11T03:27:14.312Z,0.00
2018-09-11T03:28:14.313Z,0.00
2018-09-11T03:29:14.306Z,0.00
2018-09-11T03:30:14.310Z,0.00
2018-09-11T03:31:14.315Z,0.00
2018-09-11T03:32:14.336Z,0.00
2018-09-11T03:33:14.311Z,0.00
2018-09-11T03:34:14.314Z,0.00
2018-09-11T03:35:14.311Z,0.00
2018-09-11T03:36:14.319Z,0.00
2018-09-11T03:37:14.324Z,0.00
2018-09-11T03:38:14.322Z,0.00
2018-09-11T03:39:14.317Z,0.00
2018-09-11T03:40:14.323Z,0.00
2018-09-11T03:41:14.328Z,0.00
2018-09-11T03:42:14.327Z,0.00
2018-09-11T03:43:14.341Z,0.00
2018-09-11T03:44:14.350Z,0.00
2018-09-11T03:45:14.316Z,0.00
2018-09-11T03:46:14.325Z,0.00
2018-09-11T03:47:14.402Z,0.00
2018-09-11T03:48:14.318Z,0.00
2018-09-11T03:49:14.323Z,0.00
2018-09-11T03:50:14.323Z,0.00
2018-09-11T03:51:14.326Z,0.00
2018-09-11T03:52:14.319Z,0.00
2018-09-11T03:53:14.352Z,0.00
2018-09-11T03:54:14.321Z,0.00
2018-09-11T03:55:14.322Z,0.00
2018-09-11T03:56:14.334Z,0.00
2018-09-11T03:57:14.358Z,0.00
2018-09-11T03:58:14.326Z,0.00
2018-09-11T03:59:14.358Z,0.00
2018-09-11T04:00:14.326Z,0.00
2018-09-11T04:01:14.328Z,0.00
2018-09-11T04:02:14.330Z,0.00
2018-09-11T04:03:14.330Z,0.00
2018-09-11T04:04:14.330Z,0.00
2018-09-11T04:05:14.414Z,0.00
2018-09-11T04:06:14.370Z,0.00
2018-09-11T04:07:14.335Z,0.00
2018-09-11T04:08:14.346Z,0.00
2018-09-11T04:09:14.351Z,0.00
2018-09-11T04:10:14.338Z,0.00
2018-09-11T04:11:14.387Z,0.00
2018-09-11T04:12:14.344Z,0.00
2018-09-11T04:13:14.361Z,0.00
2018-09-11T04:14:14.355Z,0.00
2018-09-11T04:15:14.340Z,0.00
2018-09-11T04:16:22.495Z,0.00
2018-09-11T04:18:08.359Z,0.00
2018-09-11T04:19:08.208Z,0.00
2018-09-11T04:20:08.277Z,0.00
2018-09-11T04:21:15.434Z,0.00
2018-09-11T04:23:01.699Z,0.00
2018-09-11T04:24:01.614Z,0.00
2018-09-11T04:25:01.581Z,0.00
2018-09-11T04:26:08.767Z,0.00
2018-09-11T04:27:55.569Z,0.00
2018-09-11T04:28:54.598Z,0.00
2018-09-11T04:30:48.013Z,0.00
2018-09-11T04:31:48.081Z,0.00
2018-09-11T04:33:41.339Z,0.00
2018-09-11T04:34:41.213Z,0.00
2018-09-11T04:36:34.881Z,0.00
2018-09-11T04:37:34.524Z,0.00
2018-09-11T04:39:28.003Z,0.00
2018-09-11T04:40:27.966Z,0.00
2018-09-11T04:42:20.923Z,0.00
2018-09-11T04:43:20.785Z,0.00
2018-09-11T04:45:14.690Z,0.00
2018-09-11T04:46:14.752Z,0.00
2018-09-11T04:47:14.640Z,0.00
2018-09-11T04:48:14.685Z,0.00
2018-09-11T04:49:14.715Z,0.00
2018-09-11T04:50:14.647Z,0.00
2018-09-11T04:51:14.623Z,0.00
2018-09-11T04:52:14.630Z,5.63
2018-09-11T04:53:14.632Z,5.63
2018-09-11T04:54:14.632Z,5.63
2018-09-11T04:55:14.628Z,5.63
2018-09-11T04:56:14.690Z,5.63
2018-09-11T04:57:14.633Z,5.63
2018-09-11T04:58:14.629Z,5.63
2018-09-11T04:59:14.632Z,5.63
2018-09-11T05:00:14.629Z,11.25
2018-09-11T05:01:14.625Z,11.25
2018-09-11T05:02:14.663Z,11.25
2018-09-11T05:03:14.630Z,11.25
2018-09-11T05:04:14.627Z,16.88
2018-09-11T05:05:14.628Z,16.88
2018-09-11T05:06:14.632Z,16.88
2018-09-11T05:07:14.635Z,16.88
2018-09-11T05:08:14.635Z,16.88
2018-09-11T05:09:14.659Z,22.50
2018-09-11T05:10:14.635Z,22.50
2018-09-11T05:11:14.644Z,22.50
2018-09-11T05:12:14.632Z,22.50
2018-09-11T05:13:14.635Z,22.50
2018-09-11T05:14:14.634Z,22.50
2018-09-11T05:15:14.633Z,22.50
2018-09-11T05:16:14.646Z,22.50
2018-09-11T05:17:14.644Z,28.13
2018-09-11T05:18:14.653Z,28.13
2018-09-11T05:19:14.643Z,28.13
2018-09-11T05:20:14.653Z,28.13
2018-09-11T05:21:14.667Z,33.75
2018-09-11T05:22:14.642Z,28.13
2018-09-11T05:23:14.638Z,28.13
2018-09-11T05:24:14.651Z,33.75
2018-09-11T05:25:14.649Z,33.75
2018-09-11T05:26:14.647Z,33.75
2018-09-11T05:27:14.648Z,33.75
2018-09-11T05:28:14.644Z,33.75
2018-09-11T05:29:14.640Z,39.38
2018-09-11T05:30:14.653Z,39.38
2018-09-11T05:31:14.644Z,39.38
2018-09-11T05:32:14.648Z,39.38
2018-09-11T05:33:14.652Z,39.38
2018-09-11T05:34:14.645Z,39.38
2018-09-11T05:35:14.653Z,39.38
2018-09-11T05:36:14.649Z,39.38
2018-09-11T05:37:14.646Z,45.00
2018-09-11T05:38:14.703Z,45.00
2018-09-11T05:39:14.652Z,45.00
2018-09-11T05:40:14.650Z,45.00
2018-09-11T05:41:14.657Z,45.00
2018-09-11T05:42:14.661Z,45.00
2018-09-11T05:43:14.680Z,45.00
2018-09-11T05:44:14.659Z,45.00
2018-09-11T05:45:14.680Z,45.00
2018-09-11T05:46:14.681Z,45.00
2018-09-11T05:47:14.665Z,45.00
2018-09-11T05:48:14.687Z,45.00
2018-09-11T05:49:14.658Z,45.00
2018-09-11T05:50:14.673Z,50.63
2018-09-11T05:51:14.666Z,50.63
2018-09-11T05:52:14.661Z,50.63
2018-09-11T05:53:14.669Z,50.63
2018-09-11T05:54:14.681Z,56.25
2018-09-11T05:55:14.683Z,56.25
2018-09-11T05:56:14.676Z,56.25
2018-09-11T05:57:14.668Z,56.25
2018-09-11T05:58:14.704Z,56.25
2018-09-11T05:59:14.702Z,56.25
2018-09-11T06:00:14.694Z,61.88
2018-09-11T06:01:14.685Z,56.25
2018-09-11T06:02:14.679Z,61.88
2018-09-11T06:03:14.700Z,61.88
2018-09-11T06:04:14.715Z,61.88
2018-09-11T06:05:14.693Z,61.88
2018-09-11T06:06:14.689Z,67.50
2018-09-11T06:07:14.723Z,67.50
2018-09-11T06:08:14.708Z,67.50
2018-09-11T06:09:14.688Z,73.13
2018-09-11T06:10:14.685Z,73.13
2018-09-11T06:11:14.689Z,73.13
2018-09-11T06:12:14.702Z,67.50
2018-09-11T06:13:14.688Z,73.13
2018-09-11T06:14:14.692Z,78.75
2018-09-11T06:15:14.697Z,78.75
2018-09-11T06:16:14.766Z,73.13
2018-09-11T06:17:14.770Z,73.13
2018-09-11T06:18:14.707Z,73.13
2018-09-11T06:19:14.701Z,78.75
2018-09-11T06:20:14.722Z,78.75
2018-09-11T06:21:14.707Z,78.75
2018-09-11T06:22:14.708Z,78.75
2018-09-11T06:23:14.707Z,84.38
2018-09-11T06:24:14.710Z,84.38
2018-09-11T06:25:14.715Z,84.38
2018-09-11T06:26:14.724Z,84.38
2018-09-11T06:27:14.720Z,84.38
2018-09-11T06:28:14.731Z,84.38
2018-09-11T06:29:14.867Z,84.38
2018-09-11T06:31:46.699Z,90.00
2018-09-11T06:32:46.449Z,90.00
2018-09-11T06:33:46.355Z,95.63
2018-09-11T06:34:46.400Z,95.63
2018-09-11T06:35:47.073Z,101.25
2018-09-11T06:36:46.691Z,101.25
2018-09-11T06:39:09.940Z,101.25
2018-09-11T06:40:07.952Z,95.63
2018-09-11T06:41:07.904Z,90.00
2018-09-11T06:42:07.973Z,90.00
2018-09-11T06:43:07.865Z,101.25
2018-09-11T06:44:07.854Z,106.88
2018-09-11T06:45:07.862Z,118.13
2018-09-11T06:46:07.854Z,118.13
2018-09-11T06:47:07.971Z,123.75
2018-09-11T06:48:07.900Z,135.00
2018-09-11T06:49:07.864Z,146.25
2018-09-11T06:50:07.883Z,151.88
2018-09-11T06:51:07.875Z,118.13
2018-09-11T06:52:07.873Z,135.00
2018-09-11T06:53:07.877Z,151.88
2018-09-11T06:54:07.882Z,180.00
2018-09-11T06:55:07.885Z,151.88
2018-09-11T06:56:07.919Z,146.25
2018-09-11T06:57:07.889Z,140.63
2018-09-11T06:58:07.890Z,129.38
2018-09-11T06:59:07.921Z,106.88
2018-09-11T07:00:07.904Z,112.50
2018-09-11T07:01:07.900Z,135.00
2018-09-11T07:02:08.849Z,140.63
2018-09-11T07:03:07.915Z,135.00
2018-09-11T07:04:07.918Z,140.63
2018-09-11T07:05:07.918Z,140.63
2018-09-11T07:06:07.924Z,146.25
2018-09-11T07:07:07.969Z,146.25
2018-09-11T07:08:07.959Z,146.25
2018-09-11T07:09:07.932Z,146.25
2018-09-11T07:10:07.985Z,157.50
2018-09-11T07:11:07.985Z,258.75
2018-09-11T07:12:07.943Z,270.00
2018-09-11T07:13:08.364Z,247.50
2018-09-11T07:15:31.045Z,191.25
2018-09-11T07:16:30.130Z,174.38
2018-09-11T07:17:29.424Z,180.00
2018-09-11T07:18:29.384Z,185.63
2018-09-11T07:19:29.669Z,213.75
2018-09-11T07:20:29.569Z,208.13
2018-09-11T07:21:29.454Z,208.13
2018-09-11T07:22:29.895Z,202.50
2018-09-11T07:23:29.402Z,219.38
2018-09-11T07:24:29.367Z,208.13
2018-09-11T07:25:29.473Z,213.75
2018-09-11T07:26:29.378Z,225.00
2018-09-11T07:27:30.380Z,219.38
2018-09-11T07:28:36.964Z,270.00
2018-09-11T07:30:23.324Z,326.25
2018-09-11T07:31:24.196Z,489.38
2018-09-11T07:35:11.172Z,675.00
2018-09-11T07:36:08.384Z,669.38
2018-09-11T07:37:54.624Z,540.00
2018-09-11T07:38:54.765Z,624.38
2018-09-11T07:40:47.798Z,568.13
2018-09-11T07:41:47.708Z,568.13
2018-09-11T07:43:41.422Z,348.75
2018-09-11T07:44:41.506Z,365.63
2018-09-11T07:46:34.461Z,517.50
2018-09-11T07:47:34.205Z,455.63
2018-09-11T07:49:27.919Z,568.13
2018-09-11T07:50:27.757Z,748.13
2018-09-11T07:52:21.714Z,849.38
2018-09-11T07:53:21.673Z,1023.75
2018-09-11T07:54:21.730Z,793.13
2018-09-11T07:55:21.514Z,708.75
2018-09-11T07:56:21.475Z,343.13
2018-09-11T07:57:21.386Z,427.50
2018-09-11T07:58:21.402Z,669.38
2018-09-11T07:59:21.421Z,736.88
2018-09-11T08:00:21.409Z,933.75
2018-09-11T08:01:21.425Z,765.00
2018-09-11T08:02:21.430Z,264.38
2018-09-11T08:03:21.417Z,388.13
2018-09-11T08:04:21.429Z,416.25
2018-09-11T08:05:21.477Z,624.38
2018-09-11T08:06:21.454Z,624.38
2018-09-11T08:07:21.454Z,703.13
2018-09-11T08:08:21.449Z,843.75
2018-09-11T08:09:21.470Z,826.88
2018-09-11T08:10:21.445Z,821.25
2018-09-11T08:11:21.479Z,815.63
2018-09-11T08:12:21.467Z,950.63
2018-09-11T08:13:21.461Z,1074.38
2018-09-11T08:14:21.491Z,1051.88
2018-09-11T08:15:21.474Z,1288.13
2018-09-11T08:16:21.528Z,1305.00
2018-09-11T08:17:21.494Z,1209.38
2018-09-11T08:18:21.539Z,1186.88
2018-09-11T08:19:23.427Z,1006.88
2018-09-11T08:20:21.513Z,995.63
2018-09-11T08:21:21.547Z,950.63
2018-09-11T08:22:21.525Z,888.75
2018-09-11T08:23:21.539Z,1186.88
2018-09-11T08:24:21.540Z,1035.00
2018-09-11T08:25:21.562Z,945.00
2018-09-11T08:26:21.603Z,922.50
2018-09-11T08:27:21.689Z,759.38
2018-09-11T08:28:23.509Z,793.13
2018-09-11T08:29:23.462Z,933.75
2018-09-11T08:30:21.593Z,1035.00
2018-09-11T08:31:21.655Z,956.25
2018-09-11T08:32:21.637Z,871.88
2018-09-11T08:33:21.615Z,945.00
2018-09-11T08:34:21.633Z,883.13
2018-09-11T08:35:21.631Z,888.75
2018-09-11T08:36:21.669Z,843.75
2018-09-11T08:37:21.649Z,787.50
2018-09-11T08:38:21.660Z,821.25
2018-09-11T08:39:21.694Z,686.25
2018-09-11T08:40:21.677Z,849.38
2018-09-11T08:41:21.703Z,866.25
2018-09-11T08:42:21.691Z,905.63
2018-09-11T08:43:21.745Z,1170.00
2018-09-11T08:44:21.716Z,1108.13
2018-09-11T08:45:21.774Z,1051.88
2018-09-11T08:46:22.805Z,978.75
2018-09-11T08:47:23.415Z,1074.38
2018-09-11T08:48:23.407Z,1192.50
2018-09-11T08:49:21.763Z,1417.50
2018-09-11T08:50:21.792Z,1552.50
2018-09-11T08:51:23.405Z,1530.00
2018-09-11T08:52:21.807Z,1462.50
2018-09-11T08:53:21.799Z,1462.50
2018-09-11T08:54:21.809Z,1485.00
2018-09-11T08:55:23.408Z,1378.13
2018-09-11T08:56:21.859Z,1535.63
2018-09-11T08:57:21.888Z,1614.38
2018-09-11T08:58:23.487Z,1614.38
2018-09-11T08:59:22.044Z,1636.88
2018-09-11T09:00:35.327Z,1485.00
2018-09-11T09:02:54.046Z,1091.25
2018-09-11T09:04:01.061Z,1119.38
2018-09-11T09:05:46.874Z,1068.75
2018-09-11T09:06:46.851Z,1096.88
2018-09-11T09:07:46.697Z,928.13
2018-09-11T09:08:46.621Z,1018.13
2018-09-11T09:09:46.879Z,1040.63
2018-09-11T09:10:46.541Z,1018.13
2018-09-11T09:11:46.579Z,1040.63
2018-09-11T09:12:46.533Z,1074.38
2018-09-11T09:13:46.543Z,1063.13
2018-09-11T09:14:46.585Z,1153.13
2018-09-11T09:15:46.581Z,1057.50
2018-09-11T09:16:46.585Z,1035.00
2018-09-11T09:17:46.585Z,1080.00
2018-09-11T09:18:46.602Z,1096.88
2018-09-11T09:19:46.613Z,1080.00
2018-09-11T09:20:46.679Z,928.13
2018-09-11T09:21:46.634Z,1051.88
2018-09-11T09:22:46.974Z,1046.25
2018-09-11T09:25:27.945Z,1068.75
2018-09-11T09:26:27.421Z,1074.38
2018-09-11T09:28:19.993Z,1113.75
2018-09-11T09:29:21.464Z,1102.50
2018-09-11T09:31:14.248Z,1018.13
2018-09-11T09:32:13.606Z,995.63
2018-09-11T09:34:22.214Z,871.88
2018-09-11T09:35:06.472Z,961.88
2018-09-11T09:36:59.928Z,956.25
2018-09-11T09:37:59.450Z,720.00
2018-09-11T09:39:52.299Z,900.00
2018-09-11T09:40:52.388Z,849.38
2018-09-11T09:42:52.494Z,894.38
2018-09-11T09:43:46.241Z,753.75
2018-09-11T09:44:45.878Z,421.88
2018-09-11T09:45:49.628Z,410.63
2018-09-11T09:46:45.019Z,421.88
2018-09-11T09:56:05.355Z,315.00
2018-09-11T09:57:06.625Z,320.63
2018-09-11T09:58:05.861Z,303.75
2018-09-11T09:59:05.382Z,275.63
2018-09-11T10:01:59.104Z,264.38
2018-09-11T10:04:13.799Z,264.38
2018-09-11T10:05:22.341Z,264.38
2018-09-11T10:07:07.129Z,264.38
2018-09-11T10:08:06.973Z,270.00
2018-09-11T10:10:04.196Z,264.38
2018-09-11T10:11:01.396Z,275.63
2018-09-11T10:11:59.878Z,270.00
2018-09-11T10:13:05.438Z,264.38
2018-09-11T10:14:00.119Z,258.75
2018-09-11T10:14:59.818Z,264.38
2018-09-11T10:16:14.881Z,264.38
2018-09-11T10:17:55.976Z,258.75
2018-09-11T10:18:55.870Z,264.38
2018-09-11T10:23:41.289Z,264.38
2018-09-11T10:28:09.831Z,264.38
2018-09-11T10:29:09.677Z,270.00
2018-09-11T10:31:12.585Z,275.63
2018-09-11T10:32:03.274Z,275.63
2018-09-11T10:33:58.046Z,264.38
2018-09-11T10:39:26.874Z,247.50
2018-09-11T10:40:26.901Z,241.88
2018-09-11T10:42:25.387Z,253.13
2018-09-11T10:43:47.186Z,253.13
2018-09-11T10:45:23.012Z,258.75
2018-09-11T10:46:31.482Z,264.38
2018-09-11T10:49:15.545Z,258.75
2018-09-11T10:51:53.242Z,281.25
2018-09-11T10:52:56.593Z,281.25
2018-09-11T10:53:51.792Z,281.25
2018-09-11T10:54:51.674Z,286.88
2018-09-11T10:55:53.523Z,281.25
2018-09-11T10:57:03.938Z,264.38
2018-09-11T10:57:52.892Z,270.00
2018-09-11T10:58:51.866Z,247.50
2018-09-11T10:59:54.416Z,241.88
2018-09-11T11:04:14.005Z,258.75
2018-09-11T11:07:09.412Z,253.13
2018-09-11T11:10:21.870Z,247.50
2018-09-11T11:13:18.080Z,270.00
2018-09-11T11:14:28.952Z,281.25
2018-09-11T11:15:18.161Z,286.88
2018-09-11T11:16:21.049Z,281.25
2018-09-11T11:17:26.045Z,298.13
2018-09-11T11:19:41.995Z,292.50
2018-09-11T11:20:36.530Z,298.13
2018-09-11T11:21:46.669Z,286.88
2018-09-11T11:29:37.791Z,236.25
2018-09-11T11:29:38.358Z,236.25
2018-09-11T11:30:38.217Z,230.63
2018-09-11T11:31:38.481Z,219.38
2018-09-11T11:32:48.008Z,213.75
2018-09-11T11:33:38.466Z,213.75
2018-09-11T11:36:21.373Z,202.50
2018-09-11T11:37:20.458Z,213.75
2018-09-11T11:38:20.265Z,208.13
2018-09-11T11:39:20.235Z,213.75
2018-09-11T11:40:20.419Z,219.38
2018-09-11T11:41:20.234Z,219.38
2018-09-11T11:42:20.237Z,219.38
2018-09-11T11:43:20.217Z,213.75
2018-09-11T11:44:20.230Z,213.75
2018-09-11T11:45:20.382Z,213.75
2018-09-11T11:46:20.465Z,213.75
2018-09-11T11:47:21.244Z,202.50
2018-09-11T11:50:41.157Z,202.50
2018-09-11T11:50:46.068Z,202.50
2018-09-11T11:51:45.492Z,202.50
2018-09-11T11:53:11.042Z,208.13
2018-09-11T11:55:36.652Z,208.13
2018-09-11T11:55:44.941Z,196.88
2018-09-11T11:57:16.561Z,196.88
2018-09-11T11:59:45.586Z,208.13
2018-09-11T12:00:41.880Z,208.13
2018-09-11T12:01:41.419Z,208.13
2018-09-11T12:02:41.497Z,208.13
2018-09-11T12:03:41.328Z,208.13
2018-09-11T12:04:41.390Z,208.13
2018-09-11T12:05:41.358Z,208.13
2018-09-11T12:06:41.384Z,196.88
2018-09-11T12:07:50.467Z,202.50
2018-09-11T12:33:02.710Z,163.13
2018-09-11T12:33:08.669Z,157.50
2018-09-11T12:41:20.381Z,163.13
2018-09-11T13:00:29.629Z,151.88
2018-09-11T13:03:31.335Z,140.63
2018-09-11T13:06:15.863Z,140.63
2018-09-11T13:06:45.951Z,140.63
2018-09-11T13:07:46.011Z,140.63
2018-09-11T13:08:45.988Z,140.63
2018-09-11T13:09:45.728Z,135.00
2018-09-11T13:10:46.165Z,135.00
2018-09-11T13:11:45.732Z,129.38
2018-09-11T13:12:47.199Z,129.38
2018-09-11T13:15:15.972Z,135.00
2018-09-11T13:16:30.821Z,123.75
2018-09-11T13:18:19.270Z,135.00
2018-09-11T13:19:24.385Z,135.00
2018-09-11T13:22:56.083Z,135.00
2018-09-11T13:23:51.456Z,140.63
2018-09-11T13:24:53.415Z,135.00
2018-09-11T13:25:56.678Z,135.00
2018-09-11T13:29:22.383Z,123.75
2018-09-11T13:30:11.980Z,118.13
2018-09-11T13:31:02.580Z,118.13
2018-09-11T13:32:41.505Z,123.75
2018-09-11T13:33:03.582Z,123.75
2018-09-11T13:35:08.392Z,123.75
2018-09-11T13:35:14.868Z,123.75
2018-09-11T13:36:09.042Z,123.75
2018-09-11T13:37:08.986Z,123.75
2018-09-11T13:38:08.748Z,123.75
2018-09-11T13:39:10.460Z,123.75
2018-09-11T13:40:21.535Z,123.75
2018-09-11T13:43:23.133Z,118.13
2018-09-11T13:47:08.790Z,112.50
2018-09-11T13:51:52.846Z,106.88
2018-09-11T13:52:30.756Z,106.88
2018-09-11T13:53:50.160Z,106.88
2018-09-11T13:54:39.243Z,106.88
2018-09-11T14:04:24.837Z,95.63
2018-09-11T14:09:57.036Z,101.25
2018-09-11T14:12:14.704Z,95.63
2018-09-11T14:13:14.371Z,95.63
2018-09-11T14:14:14.207Z,95.63
2018-09-11T14:18:02.106Z,95.63
2018-09-11T14:18:56.611Z,95.63
2018-09-11T14:20:20.000Z,95.63
2018-09-11T14:21:59.276Z,95.63
2018-09-11T14:25:05.373Z,90.00
2018-09-11T14:26:14.217Z,90.00
2018-09-11T14:28:59.215Z,90.00
2018-09-11T14:32:36.187Z,90.00
2018-09-11T14:37:49.549Z,84.38
2018-09-11T14:38:49.989Z,84.38
2018-09-11T14:40:55.179Z,84.38
2018-09-11T14:41:51.193Z,78.75
2018-09-11T14:42:51.211Z,78.75
2018-09-11T14:43:51.116Z,78.75
2018-09-11T14:44:51.349Z,78.75
2018-09-11T14:45:51.936Z,78.75
2018-09-11T14:51:19.802Z,78.75
2018-09-11T14:52:19.151Z,78.75
2018-09-11T14:53:19.258Z,78.75
2018-09-11T14:54:19.121Z,78.75
2018-09-11T14:55:19.169Z,78.75
2018-09-11T14:56:19.136Z,78.75
2018-09-11T14:57:19.227Z,78.75
2018-09-11T14:58:19.153Z,78.75
2018-09-11T14:59:19.157Z,73.13
2018-09-11T15:00:19.237Z,73.13
2018-09-11T15:01:19.167Z,73.13
2018-09-11T15:02:19.172Z,73.13
2018-09-11T15:03:19.188Z,73.13
2018-09-11T15:04:19.299Z,73.13
2018-09-11T15:05:19.217Z,73.13
2018-09-11T15:06:19.226Z,73.13
2018-09-11T15:07:19.255Z,73.13
2018-09-11T15:08:19.261Z,73.13
2018-09-11T15:09:19.232Z,73.13
2018-09-11T15:10:19.229Z,73.13
2018-09-11T15:11:19.277Z,73.13
2018-09-11T15:12:19.239Z,73.13
2018-09-11T15:13:19.313Z,67.50
2018-09-11T15:14:19.307Z,73.13
2018-09-11T15:15:19.255Z,67.50
2018-09-11T15:16:19.284Z,67.50
2018-09-11T15:17:19.268Z,67.50
2018-09-11T15:18:19.275Z,67.50
2018-09-11T15:19:19.276Z,67.50
2018-09-11T15:20:19.289Z,67.50
2018-09-11T15:21:19.342Z,67.50
2018-09-11T15:22:19.305Z,67.50
2018-09-11T15:23:19.330Z,67.50
2018-09-11T15:24:19.369Z,67.50
2018-09-11T15:25:20.639Z,67.50
2018-09-11T15:26:19.330Z,67.50
2018-09-11T15:28:13.099Z,67.50
2018-09-11T15:29:12.984Z,67.50
2018-09-11T15:31:06.075Z,61.88
2018-09-11T15:32:05.825Z,61.88
2018-09-11T15:33:59.035Z,61.88
2018-09-11T15:34:58.825Z,56.25
2018-09-11T15:36:52.314Z,50.63
2018-09-11T15:37:51.612Z,50.63
2018-09-11T15:39:45.079Z,50.63
2018-09-11T15:40:46.850Z,50.63
2018-09-11T15:42:38.705Z,50.63
2018-09-11T15:43:38.419Z,50.63
2018-09-11T15:45:32.534Z,50.63
2018-09-11T15:46:32.372Z,50.63
2018-09-11T15:48:26.374Z,50.63
2018-09-11T15:49:27.281Z,50.63
2018-09-11T15:50:27.737Z,50.63
2018-09-11T15:51:28.771Z,50.63
2018-09-11T15:52:26.326Z,50.63
2018-09-11T15:53:27.611Z,50.63
2018-09-11T15:54:37.707Z,50.63
2018-09-11T15:55:28.858Z,50.63
2018-09-11T15:56:27.251Z,50.63
2018-09-11T15:57:26.160Z,50.63
2018-09-11T15:58:26.179Z,50.63
2018-09-11T15:59:26.269Z,50.63
2018-09-11T16:00:26.189Z,50.63
2018-09-11T16:01:28.304Z,50.63
2018-09-11T16:02:35.027Z,45.00
2018-09-11T16:03:26.382Z,45.00
2018-09-11T16:04:35.507Z,45.00
2018-09-11T16:06:22.559Z,45.00
2018-09-11T16:07:31.520Z,45.00
2018-09-11T16:09:19.757Z,45.00